sensor_id;sensor_type;location;lat;lon;timestamp;P1;durP1;ratioP1;P2;durP2;ratioP2
55368;SDS011;41247;49.736;8.752;2023-07-31T00:01:37;7.60;;;2.05;;
55368;SDS011;41247;49.736;8.752;2023-07-31T00:05:17;7.10;;;2.10;;
55368;SDS011;41247;49.736;8.752;2023-07-31T00:08:58;8.80;;;2.17;;
55368;SDS011;41247;49.736;8.752;2023-07-31T00:12:39;8.65;;;1.92;;
55368;SDS011;41247;49.736;8.752;2023-07-31T00:16:23;5.45;;;1.92;;
55368;SDS011;41247;49.736;8.752;2023-07-31T00:20:03;5.80;;;2.17;;
55368;SDS011;41247;49.736;8.752;2023-07-31T00:23:44;6.57;;;1.90;;
55368;SDS011;41247;49.736;8.752;2023-07-31T00:27:25;11.52;;;2.15;;
55368;SDS011;41247;49.736;8.752;2023-07-31T00:31:06;7.82;;;2.25;;
55368;SDS011;41247;49.736;8.752;2023-07-31T00:34:47;5.80;;;2.20;;
55368;SDS011;41247;49.736;8.752;2023-07-31T00:38:28;13.75;;;2.45;;
55368;SDS011;41247;49.736;8.752;2023-07-31T00:42:09;8.50;;;2.03;;
55368;SDS011;41247;49.736;8.752;2023-07-31T00:45:49;7.70;;;2.47;;
55368;SDS011;41247;49.736;8.752;2023-07-31T00:49:30;9.05;;;2.00;;
55368;SDS011;41247;49.736;8.752;2023-07-31T00:53:11;8.95;;;1.95;;
55368;SDS011;41247;49.736;8.752;2023-07-31T00:56:52;10.45;;;2.05;;
55368;SDS011;41247;49.736;8.752;2023-07-31T01:00:34;7.03;;;2.05;;
55368;SDS011;41247;49.736;8.752;2023-07-31T01:04:15;7.60;;;2.20;;
55368;SDS011;41247;49.736;8.752;2023-07-31T01:08:04;9.90;;;2.25;;
55368;SDS011;41247;49.736;8.752;2023-07-31T01:12:00;6.00;;;1.77;;
55368;SDS011;41247;49.736;8.752;2023-07-31T01:15:43;9.88;;;2.50;;
55368;SDS011;41247;49.736;8.752;2023-07-31T01:19:24;7.38;;;2.22;;
55368;SDS011;41247;49.736;8.752;2023-07-31T01:27:38;8.80;;;1.85;;
55368;SDS011;41247;49.736;8.752;2023-07-31T01:31:39;5.88;;;2.25;;
55368;SDS011;41247;49.736;8.752;2023-07-31T01:35:20;6.40;;;1.88;;
55368;SDS011;41247;49.736;8.752;2023-07-31T01:39:01;11.10;;;2.00;;
55368;SDS011;41247;49.736;8.752;2023-07-31T01:42:42;10.38;;;2.70;;
55368;SDS011;41247;49.736;8.752;2023-07-31T01:46:23;12.85;;;2.40;;
55368;SDS011;41247;49.736;8.752;2023-07-31T01:50:04;7.45;;;2.28;;
55368;SDS011;41247;49.736;8.752;2023-07-31T01:53:45;9.05;;;2.25;;
55368;SDS011;41247;49.736;8.752;2023-07-31T01:57:26;9.10;;;2.40;;
55368;SDS011;41247;49.736;8.752;2023-07-31T02:01:06;7.78;;;2.42;;
55368;SDS011;41247;49.736;8.752;2023-07-31T02:04:47;9.73;;;2.20;;
55368;SDS011;41247;49.736;8.752;2023-07-31T02:08:27;9.05;;;2.17;;
55368;SDS011;41247;49.736;8.752;2023-07-31T02:12:08;8.55;;;2.55;;
55368;SDS011;41247;49.736;8.752;2023-07-31T02:15:49;6.93;;;2.00;;
55368;SDS011;41247;49.736;8.752;2023-07-31T02:19:29;7.20;;;2.88;;
55368;SDS011;41247;49.736;8.752;2023-07-31T02:23:10;9.38;;;2.38;;
55368;SDS011;41247;49.736;8.752;2023-07-31T02:26:50;9.02;;;2.75;;
55368;SDS011;41247;49.736;8.752;2023-07-31T02:30:31;7.93;;;2.70;;
55368;SDS011;41247;49.736;8.752;2023-07-31T02:34:11;9.73;;;2.28;;
55368;SDS011;41247;49.736;8.752;2023-07-31T02:37:52;10.77;;;2.35;;
55368;SDS011;41247;49.736;8.752;2023-07-31T02:41:33;6.35;;;2.35;;
55368;SDS011;41247;49.736;8.752;2023-07-31T02:45:13;7.22;;;2.80;;
55368;SDS011;41247;49.736;8.752;2023-07-31T02:48:54;9.43;;;2.30;;
55368;SDS011;41247;49.736;8.752;2023-07-31T02:52:34;12.95;;;2.72;;
55368;SDS011;41247;49.736;8.752;2023-07-31T02:56:15;7.65;;;2.65;;
55368;SDS011;41247;49.736;8.752;2023-07-31T02:59:56;6.70;;;2.42;;
55368;SDS011;41247;49.736;8.752;2023-07-31T03:03:36;10.63;;;2.33;;
55368;SDS011;41247;49.736;8.752;2023-07-31T03:07:17;11.40;;;2.40;;
55368;SDS011;41247;49.736;8.752;2023-07-31T03:10:57;10.48;;;2.53;;
55368;SDS011;41247;49.736;8.752;2023-07-31T03:14:38;8.77;;;2.50;;
55368;SDS011;41247;49.736;8.752;2023-07-31T03:18:18;8.90;;;2.58;;
55368;SDS011;41247;49.736;8.752;2023-07-31T03:21:59;6.45;;;2.40;;
55368;SDS011;41247;49.736;8.752;2023-07-31T03:25:41;10.40;;;3.10;;
55368;SDS011;41247;49.736;8.752;2023-07-31T03:29:36;8.40;;;2.42;;
55368;SDS011;41247;49.736;8.752;2023-07-31T03:33:17;10.43;;;2.88;;
55368;SDS011;41247;49.736;8.752;2023-07-31T03:36:57;9.57;;;2.80;;
55368;SDS011;41247;49.736;8.752;2023-07-31T03:40:38;9.25;;;2.60;;
55368;SDS011;41247;49.736;8.752;2023-07-31T03:44:20;12.23;;;3.33;;
55368;SDS011;41247;49.736;8.752;2023-07-31T03:48:01;7.85;;;2.70;;
55368;SDS011;41247;49.736;8.752;2023-07-31T03:51:42;9.75;;;2.90;;
55368;SDS011;41247;49.736;8.752;2023-07-31T03:55:22;10.48;;;2.90;;
55368;SDS011;41247;49.736;8.752;2023-07-31T03:59:03;8.68;;;2.67;;
55368;SDS011;41247;49.736;8.752;2023-07-31T04:02:43;9.70;;;2.58;;
55368;SDS011;41247;49.736;8.752;2023-07-31T04:06:24;9.32;;;2.50;;
55368;SDS011;41247;49.736;8.752;2023-07-31T04:10:05;9.80;;;2.47;;
55368;SDS011;41247;49.736;8.752;2023-07-31T04:13:45;7.03;;;2.45;;
55368;SDS011;41247;49.736;8.752;2023-07-31T04:17:26;8.02;;;2.97;;
55368;SDS011;41247;49.736;8.752;2023-07-31T04:21:09;10.30;;;2.80;;
55368;SDS011;41247;49.736;8.752;2023-07-31T04:24:50;5.60;;;2.15;;
55368;SDS011;41247;49.736;8.752;2023-07-31T04:28:30;8.27;;;2.50;;
55368;SDS011;41247;49.736;8.752;2023-07-31T04:32:11;9.55;;;2.90;;
55368;SDS011;41247;49.736;8.752;2023-07-31T04:36:07;9.48;;;2.60;;
55368;SDS011;41247;49.736;8.752;2023-07-31T04:44:07;6.65;;;2.78;;
55368;SDS011;41247;49.736;8.752;2023-07-31T04:48:08;8.10;;;2.83;;
55368;SDS011;41247;49.736;8.752;2023-07-31T04:52:28;7.75;;;2.65;;
55368;SDS011;41247;49.736;8.752;2023-07-31T04:56:08;7.57;;;2.78;;
55368;SDS011;41247;49.736;8.752;2023-07-31T05:08:14;8.77;;;2.88;;
55368;SDS011;41247;49.736;8.752;2023-07-31T05:11:55;7.10;;;2.60;;
55368;SDS011;41247;49.736;8.752;2023-07-31T05:15:36;5.70;;;2.45;;
55368;SDS011;41247;49.736;8.752;2023-07-31T05:19:16;8.07;;;2.67;;
55368;SDS011;41247;49.736;8.752;2023-07-31T05:22:57;9.05;;;2.80;;
55368;SDS011;41247;49.736;8.752;2023-07-31T05:27:07;8.25;;;2.72;;
55368;SDS011;41247;49.736;8.752;2023-07-31T05:30:58;5.57;;;2.60;;
55368;SDS011;41247;49.736;8.752;2023-07-31T05:35:11;8.75;;;2.78;;
55368;SDS011;41247;49.736;8.752;2023-07-31T05:38:52;7.68;;;2.38;;
55368;SDS011;41247;49.736;8.752;2023-07-31T05:42:34;8.32;;;2.55;;
55368;SDS011;41247;49.736;8.752;2023-07-31T05:46:17;7.28;;;2.53;;
55368;SDS011;41247;49.736;8.752;2023-07-31T05:50:43;9.35;;;3.00;;
55368;SDS011;41247;49.736;8.752;2023-07-31T05:54:31;10.53;;;2.80;;
55368;SDS011;41247;49.736;8.752;2023-07-31T05:58:21;12.45;;;2.72;;
55368;SDS011;41247;49.736;8.752;2023-07-31T06:02:24;8.80;;;2.40;;
55368;SDS011;41247;49.736;8.752;2023-07-31T06:06:05;8.55;;;3.08;;
55368;SDS011;41247;49.736;8.752;2023-07-31T06:09:46;9.95;;;2.67;;
55368;SDS011;41247;49.736;8.752;2023-07-31T06:13:30;7.65;;;2.47;;
55368;SDS011;41247;49.736;8.752;2023-07-31T06:17:12;10.13;;;2.85;;
55368;SDS011;41247;49.736;8.752;2023-07-31T06:20:52;8.50;;;2.72;;
55368;SDS011;41247;49.736;8.752;2023-07-31T06:24:33;8.75;;;2.97;;
55368;SDS011;41247;49.736;8.752;2023-07-31T06:28:28;9.55;;;2.90;;
55368;SDS011;41247;49.736;8.752;2023-07-31T06:32:10;10.07;;;2.70;;
55368;SDS011;41247;49.736;8.752;2023-07-31T06:36:00;11.57;;;2.90;;
55368;SDS011;41247;49.736;8.752;2023-07-31T06:40:09;11.85;;;2.42;;
55368;SDS011;41247;49.736;8.752;2023-07-31T06:43:59;8.55;;;2.83;;
55368;SDS011;41247;49.736;8.752;2023-07-31T06:47:52;8.35;;;3.03;;
55368;SDS011;41247;49.736;8.752;2023-07-31T06:51:55;8.57;;;2.53;;
55368;SDS011;41247;49.736;8.752;2023-07-31T06:55:39;6.32;;;2.40;;
55368;SDS011;41247;49.736;8.752;2023-07-31T06:59:32;7.68;;;2.75;;
55368;SDS011;41247;49.736;8.752;2023-07-31T07:03:13;6.70;;;2.78;;
55368;SDS011;41247;49.736;8.752;2023-07-31T07:06:54;7.35;;;2.90;;
55368;SDS011;41247;49.736;8.752;2023-07-31T07:10:34;6.75;;;2.97;;
55368;SDS011;41247;49.736;8.752;2023-07-31T07:14:15;8.38;;;2.83;;
55368;SDS011;41247;49.736;8.752;2023-07-31T07:17:55;11.98;;;2.65;;
55368;SDS011;41247;49.736;8.752;2023-07-31T07:21:36;8.52;;;2.47;;
55368;SDS011;41247;49.736;8.752;2023-07-31T07:25:17;11.07;;;3.13;;
55368;SDS011;41247;49.736;8.752;2023-07-31T07:28:57;10.52;;;2.83;;
55368;SDS011;41247;49.736;8.752;2023-07-31T07:32:38;7.00;;;2.45;;
55368;SDS011;41247;49.736;8.752;2023-07-31T07:36:18;5.78;;;2.25;;
55368;SDS011;41247;49.736;8.752;2023-07-31T07:40:02;9.00;;;2.75;;
55368;SDS011;41247;49.736;8.752;2023-07-31T07:43:42;7.95;;;2.80;;
55368;SDS011;41247;49.736;8.752;2023-07-31T07:47:23;10.43;;;2.45;;
55368;SDS011;41247;49.736;8.752;2023-07-31T07:51:04;8.93;;;2.80;;
55368;SDS011;41247;49.736;8.752;2023-07-31T07:54:44;7.50;;;2.58;;
55368;SDS011;41247;49.736;8.752;2023-07-31T07:58:25;12.98;;;2.90;;
55368;SDS011;41247;49.736;8.752;2023-07-31T08:02:05;7.70;;;2.40;;
55368;SDS011;41247;49.736;8.752;2023-07-31T08:05:46;8.73;;;2.50;;
55368;SDS011;41247;49.736;8.752;2023-07-31T08:09:27;11.57;;;2.83;;
55368;SDS011;41247;49.736;8.752;2023-07-31T08:13:17;6.45;;;2.45;;
55368;SDS011;41247;49.736;8.752;2023-07-31T08:16:58;8.48;;;2.80;;
55368;SDS011;41247;49.736;8.752;2023-07-31T08:20:41;9.02;;;2.88;;
55368;SDS011;41247;49.736;8.752;2023-07-31T08:24:22;8.02;;;2.83;;
55368;SDS011;41247;49.736;8.752;2023-07-31T08:28:03;8.20;;;2.72;;
55368;SDS011;41247;49.736;8.752;2023-07-31T08:31:47;8.75;;;2.70;;
55368;SDS011;41247;49.736;8.752;2023-07-31T08:35:28;7.63;;;2.40;;
55368;SDS011;41247;49.736;8.752;2023-07-31T08:39:08;6.05;;;2.22;;
55368;SDS011;41247;49.736;8.752;2023-07-31T08:42:53;7.10;;;2.40;;
55368;SDS011;41247;49.736;8.752;2023-07-31T08:46:37;9.18;;;2.45;;
55368;SDS011;41247;49.736;8.752;2023-07-31T08:50:19;9.00;;;2.60;;
55368;SDS011;41247;49.736;8.752;2023-07-31T08:54:01;8.25;;;2.83;;
55368;SDS011;41247;49.736;8.752;2023-07-31T08:57:42;8.07;;;2.83;;
55368;SDS011;41247;49.736;8.752;2023-07-31T09:01:23;7.40;;;2.45;;
55368;SDS011;41247;49.736;8.752;2023-07-31T09:05:05;9.40;;;3.03;;
55368;SDS011;41247;49.736;8.752;2023-07-31T09:08:47;7.22;;;2.50;;
55368;SDS011;41247;49.736;8.752;2023-07-31T09:12:28;10.90;;;2.80;;
55368;SDS011;41247;49.736;8.752;2023-07-31T09:16:08;9.18;;;2.95;;
55368;SDS011;41247;49.736;8.752;2023-07-31T09:19:49;6.60;;;2.67;;
55368;SDS011;41247;49.736;8.752;2023-07-31T09:23:42;8.48;;;2.65;;
55368;SDS011;41247;49.736;8.752;2023-07-31T09:27:25;7.35;;;2.92;;
55368;SDS011;41247;49.736;8.752;2023-07-31T09:31:07;8.02;;;2.85;;
55368;SDS011;41247;49.736;8.752;2023-07-31T09:34:48;8.57;;;2.63;;
55368;SDS011;41247;49.736;8.752;2023-07-31T09:38:28;8.13;;;2.78;;
55368;SDS011;41247;49.736;8.752;2023-07-31T09:42:09;10.35;;;3.05;;
55368;SDS011;41247;49.736;8.752;2023-07-31T09:45:54;5.82;;;2.85;;
55368;SDS011;41247;49.736;8.752;2023-07-31T09:49:36;8.10;;;2.75;;
55368;SDS011;41247;49.736;8.752;2023-07-31T09:53:16;8.30;;;2.50;;
55368;SDS011;41247;49.736;8.752;2023-07-31T09:56:57;8.82;;;2.25;;
55368;SDS011;41247;49.736;8.752;2023-07-31T10:00:40;6.90;;;3.30;;
55368;SDS011;41247;49.736;8.752;2023-07-31T10:04:20;11.32;;;2.85;;
55368;SDS011;41247;49.736;8.752;2023-07-31T10:08:08;10.43;;;2.88;;
55368;SDS011;41247;49.736;8.752;2023-07-31T10:11:55;7.72;;;2.90;;
55368;SDS011;41247;49.736;8.752;2023-07-31T10:15:40;8.70;;;2.58;;
55368;SDS011;41247;49.736;8.752;2023-07-31T10:19:21;9.70;;;3.00;;
55368;SDS011;41247;49.736;8.752;2023-07-31T10:23:02;9.65;;;2.72;;
55368;SDS011;41247;49.736;8.752;2023-07-31T10:26:44;12.70;;;3.38;;
55368;SDS011;41247;49.736;8.752;2023-07-31T10:30:27;7.80;;;2.63;;
55368;SDS011;41247;49.736;8.752;2023-07-31T10:34:12;6.68;;;2.92;;
55368;SDS011;41247;49.736;8.752;2023-07-31T10:37:54;9.40;;;2.97;;
55368;SDS011;41247;49.736;8.752;2023-07-31T10:41:34;9.80;;;3.28;;
55368;SDS011;41247;49.736;8.752;2023-07-31T10:45:38;9.35;;;3.30;;
55368;SDS011;41247;49.736;8.752;2023-07-31T10:49:22;7.00;;;3.17;;
55368;SDS011;41247;49.736;8.752;2023-07-31T10:53:03;11.23;;;3.35;;
55368;SDS011;41247;49.736;8.752;2023-07-31T10:56:44;7.70;;;2.65;;
55368;SDS011;41247;49.736;8.752;2023-07-31T11:00:26;11.30;;;3.20;;
55368;SDS011;41247;49.736;8.752;2023-07-31T11:04:11;10.07;;;3.22;;
55368;SDS011;41247;49.736;8.752;2023-07-31T11:11:35;7.10;;;3.08;;
55368;SDS011;41247;49.736;8.752;2023-07-31T11:15:16;6.35;;;2.65;;
55368;SDS011;41247;49.736;8.752;2023-07-31T11:18:58;5.82;;;2.95;;
55368;SDS011;41247;49.736;8.752;2023-07-31T11:22:38;8.15;;;3.30;;
55368;SDS011;41247;49.736;8.752;2023-07-31T11:26:19;10.18;;;2.95;;
55368;SDS011;41247;49.736;8.752;2023-07-31T11:30:00;11.68;;;3.22;;
55368;SDS011;41247;49.736;8.752;2023-07-31T11:33:41;8.57;;;3.17;;
55368;SDS011;41247;49.736;8.752;2023-07-31T11:37:22;9.63;;;3.17;;
55368;SDS011;41247;49.736;8.752;2023-07-31T11:41:03;8.80;;;2.95;;
55368;SDS011;41247;49.736;8.752;2023-07-31T11:44:44;10.23;;;3.63;;
55368;SDS011;41247;49.736;8.752;2023-07-31T11:48:26;7.72;;;3.30;;
55368;SDS011;41247;49.736;8.752;2023-07-31T11:52:11;8.65;;;3.33;;
55368;SDS011;41247;49.736;8.752;2023-07-31T11:55:52;7.63;;;3.20;;
55368;SDS011;41247;49.736;8.752;2023-07-31T11:59:34;7.45;;;3.28;;
55368;SDS011;41247;49.736;8.752;2023-07-31T12:03:15;8.65;;;3.50;;
55368;SDS011;41247;49.736;8.752;2023-07-31T12:06:56;8.68;;;3.00;;
55368;SDS011;41247;49.736;8.752;2023-07-31T12:10:36;11.32;;;3.20;;
55368;SDS011;41247;49.736;8.752;2023-07-31T12:14:19;8.27;;;3.20;;
55368;SDS011;41247;49.736;8.752;2023-07-31T12:18:04;8.90;;;3.08;;
55368;SDS011;41247;49.736;8.752;2023-07-31T12:21:52;7.90;;;3.05;;
55368;SDS011;41247;49.736;8.752;2023-07-31T12:25:33;11.20;;;3.47;;
55368;SDS011;41247;49.736;8.752;2023-07-31T12:29:13;9.43;;;3.05;;
55368;SDS011;41247;49.736;8.752;2023-07-31T12:32:54;12.02;;;3.45;;
55368;SDS011;41247;49.736;8.752;2023-07-31T12:36:35;8.93;;;3.00;;
55368;SDS011;41247;49.736;8.752;2023-07-31T12:40:16;8.68;;;3.00;;
55368;SDS011;41247;49.736;8.752;2023-07-31T12:43:57;6.78;;;3.20;;
55368;SDS011;41247;49.736;8.752;2023-07-31T12:47:38;9.00;;;3.28;;
55368;SDS011;41247;49.736;8.752;2023-07-31T12:51:18;8.98;;;3.33;;
55368;SDS011;41247;49.736;8.752;2023-07-31T12:54:59;8.50;;;3.35;;
55368;SDS011;41247;49.736;8.752;2023-07-31T12:58:39;4.95;;;2.65;;
55368;SDS011;41247;49.736;8.752;2023-07-31T13:02:20;7.38;;;2.72;;
55368;SDS011;41247;49.736;8.752;2023-07-31T13:06:00;9.75;;;3.63;;
55368;SDS011;41247;49.736;8.752;2023-07-31T13:09:41;8.15;;;2.78;;
55368;SDS011;41247;49.736;8.752;2023-07-31T13:13:22;11.00;;;2.90;;
55368;SDS011;41247;49.736;8.752;2023-07-31T13:17:02;7.72;;;2.60;;
55368;SDS011;41247;49.736;8.752;2023-07-31T13:20:43;9.13;;;3.05;;
55368;SDS011;41247;49.736;8.752;2023-07-31T13:24:24;7.57;;;2.80;;
55368;SDS011;41247;49.736;8.752;2023-07-31T13:28:04;10.63;;;2.83;;
55368;SDS011;41247;49.736;8.752;2023-07-31T13:31:45;7.72;;;2.70;;
55368;SDS011;41247;49.736;8.752;2023-07-31T13:35:25;11.85;;;3.45;;
55368;SDS011;41247;49.736;8.752;2023-07-31T13:39:06;8.57;;;2.85;;
55368;SDS011;41247;49.736;8.752;2023-07-31T13:42:46;6.68;;;3.10;;
55368;SDS011;41247;49.736;8.752;2023-07-31T13:46:27;8.65;;;2.85;;
55368;SDS011;41247;49.736;8.752;2023-07-31T13:50:08;9.27;;;2.88;;
55368;SDS011;41247;49.736;8.752;2023-07-31T13:53:49;10.55;;;2.80;;
55368;SDS011;41247;49.736;8.752;2023-07-31T13:57:29;7.03;;;2.75;;
55368;SDS011;41247;49.736;8.752;2023-07-31T14:01:10;10.60;;;3.17;;
55368;SDS011;41247;49.736;8.752;2023-07-31T14:04:50;6.93;;;2.72;;
55368;SDS011;41247;49.736;8.752;2023-07-31T14:08:31;8.90;;;3.25;;
55368;SDS011;41247;49.736;8.752;2023-07-31T14:12:12;10.93;;;3.17;;
55368;SDS011;41247;49.736;8.752;2023-07-31T14:15:52;8.35;;;3.33;;
55368;SDS011;41247;49.736;8.752;2023-07-31T14:19:33;7.55;;;3.00;;
55368;SDS011;41247;49.736;8.752;2023-07-31T14:23:13;8.30;;;2.95;;
55368;SDS011;41247;49.736;8.752;2023-07-31T14:26:54;12.20;;;3.20;;
55368;SDS011;41247;49.736;8.752;2023-07-31T14:30:34;8.38;;;3.20;;
55368;SDS011;41247;49.736;8.752;2023-07-31T14:34:17;8.95;;;2.97;;
55368;SDS011;41247;49.736;8.752;2023-07-31T14:37:58;8.88;;;3.03;;
55368;SDS011;41247;49.736;8.752;2023-07-31T14:41:38;8.55;;;2.72;;
55368;SDS011;41247;49.736;8.752;2023-07-31T14:45:19;7.22;;;3.17;;
55368;SDS011;41247;49.736;8.752;2023-07-31T14:48:59;7.25;;;2.85;;
55368;SDS011;41247;49.736;8.752;2023-07-31T14:52:40;9.70;;;2.80;;
55368;SDS011;41247;49.736;8.752;2023-07-31T14:56:21;5.50;;;2.72;;
55368;SDS011;41247;49.736;8.752;2023-07-31T15:00:01;6.75;;;3.03;;
55368;SDS011;41247;49.736;8.752;2023-07-31T15:03:42;6.45;;;2.55;;
55368;SDS011;41247;49.736;8.752;2023-07-31T15:07:23;8.63;;;2.85;;
55368;SDS011;41247;49.736;8.752;2023-07-31T15:11:03;7.93;;;3.08;;
55368;SDS011;41247;49.736;8.752;2023-07-31T15:14:45;6.18;;;2.83;;
55368;SDS011;41247;49.736;8.752;2023-07-31T15:18:25;7.07;;;2.95;;
55368;SDS011;41247;49.736;8.752;2023-07-31T15:22:06;9.23;;;2.78;;
55368;SDS011;41247;49.736;8.752;2023-07-31T15:25:47;10.50;;;2.90;;
55368;SDS011;41247;49.736;8.752;2023-07-31T15:29:27;9.85;;;2.90;;
55368;SDS011;41247;49.736;8.752;2023-07-31T15:33:09;8.18;;;2.90;;
55368;SDS011;41247;49.736;8.752;2023-07-31T15:36:49;5.18;;;2.40;;
55368;SDS011;41247;49.736;8.752;2023-07-31T15:40:30;5.40;;;2.53;;
55368;SDS011;41247;49.736;8.752;2023-07-31T15:44:11;7.80;;;2.78;;
55368;SDS011;41247;49.736;8.752;2023-07-31T15:47:51;6.80;;;2.60;;
55368;SDS011;41247;49.736;8.752;2023-07-31T15:51:32;4.68;;;2.28;;
55368;SDS011;41247;49.736;8.752;2023-07-31T15:55:13;6.13;;;2.40;;
55368;SDS011;41247;49.736;8.752;2023-07-31T15:58:54;4.43;;;2.40;;
55368;SDS011;41247;49.736;8.752;2023-07-31T16:02:35;7.07;;;2.65;;
55368;SDS011;41247;49.736;8.752;2023-07-31T16:06:15;8.38;;;2.95;;
55368;SDS011;41247;49.736;8.752;2023-07-31T16:09:56;8.55;;;2.30;;
55368;SDS011;41247;49.736;8.752;2023-07-31T16:13:36;8.45;;;2.45;;
55368;SDS011;41247;49.736;8.752;2023-07-31T16:17:18;4.63;;;2.20;;
55368;SDS011;41247;49.736;8.752;2023-07-31T16:21:00;6.00;;;2.72;;
55368;SDS011;41247;49.736;8.752;2023-07-31T16:24:40;7.80;;;2.42;;
55368;SDS011;41247;49.736;8.752;2023-07-31T16:28:21;9.18;;;2.65;;
55368;SDS011;41247;49.736;8.752;2023-07-31T16:32:02;7.97;;;2.97;;
55368;SDS011;41247;49.736;8.752;2023-07-31T16:35:42;7.30;;;2.58;;
55368;SDS011;41247;49.736;8.752;2023-07-31T16:39:23;8.32;;;3.22;;
55368;SDS011;41247;49.736;8.752;2023-07-31T16:43:04;5.55;;;2.67;;
55368;SDS011;41247;49.736;8.752;2023-07-31T16:46:44;7.50;;;3.03;;
55368;SDS011;41247;49.736;8.752;2023-07-31T16:50:25;8.52;;;2.55;;
55368;SDS011;41247;49.736;8.752;2023-07-31T16:54:06;6.95;;;2.72;;
55368;SDS011;41247;49.736;8.752;2023-07-31T16:57:46;11.10;;;3.00;;
55368;SDS011;41247;49.736;8.752;2023-07-31T17:01:27;7.22;;;2.92;;
55368;SDS011;41247;49.736;8.752;2023-07-31T17:05:07;7.15;;;3.05;;
55368;SDS011;41247;49.736;8.752;2023-07-31T17:08:48;7.25;;;3.40;;
55368;SDS011;41247;49.736;8.752;2023-07-31T17:12:29;6.57;;;2.97;;
55368;SDS011;41247;49.736;8.752;2023-07-31T17:16:09;5.75;;;3.20;;
55368;SDS011;41247;49.736;8.752;2023-07-31T17:19:50;4.35;;;2.80;;
55368;SDS011;41247;49.736;8.752;2023-07-31T17:23:31;9.85;;;3.67;;
55368;SDS011;41247;49.736;8.752;2023-07-31T17:27:11;12.35;;;3.40;;
55368;SDS011;41247;49.736;8.752;2023-07-31T17:30:52;9.52;;;3.42;;
55368;SDS011;41247;49.736;8.752;2023-07-31T17:34:32;7.93;;;3.53;;
55368;SDS011;41247;49.736;8.752;2023-07-31T17:38:13;9.52;;;3.38;;
55368;SDS011;41247;49.736;8.752;2023-07-31T17:41:54;7.05;;;2.92;;
55368;SDS011;41247;49.736;8.752;2023-07-31T17:45:35;8.57;;;3.30;;
55368;SDS011;41247;49.736;8.752;2023-07-31T17:49:15;7.47;;;3.38;;
55368;SDS011;41247;49.736;8.752;2023-07-31T17:52:56;10.10;;;3.72;;
55368;SDS011;41247;49.736;8.752;2023-07-31T17:56:37;8.75;;;4.18;;
55368;SDS011;41247;49.736;8.752;2023-07-31T18:00:17;8.73;;;3.45;;
55368;SDS011;41247;49.736;8.752;2023-07-31T18:03:59;9.30;;;4.05;;
55368;SDS011;41247;49.736;8.752;2023-07-31T18:07:40;10.82;;;4.03;;
55368;SDS011;41247;49.736;8.752;2023-07-31T18:11:21;11.88;;;4.35;;
55368;SDS011;41247;49.736;8.752;2023-07-31T18:15:01;16.08;;;4.05;;
55368;SDS011;41247;49.736;8.752;2023-07-31T18:18:42;9.05;;;3.85;;
55368;SDS011;41247;49.736;8.752;2023-07-31T18:22:23;9.50;;;4.30;;
55368;SDS011;41247;49.736;8.752;2023-07-31T18:26:04;9.30;;;3.25;;
55368;SDS011;41247;49.736;8.752;2023-07-31T18:29:44;12.75;;;4.00;;
55368;SDS011;41247;49.736;8.752;2023-07-31T18:33:25;10.00;;;3.72;;
55368;SDS011;41247;49.736;8.752;2023-07-31T18:37:07;8.27;;;3.60;;
55368;SDS011;41247;49.736;8.752;2023-07-31T18:40:47;6.25;;;3.55;;
55368;SDS011;41247;49.736;8.752;2023-07-31T18:44:28;7.03;;;3.15;;
55368;SDS011;41247;49.736;8.752;2023-07-31T18:48:09;9.13;;;3.40;;
55368;SDS011;41247;49.736;8.752;2023-07-31T18:51:49;6.45;;;2.92;;
55368;SDS011;41247;49.736;8.752;2023-07-31T18:55:30;5.78;;;3.08;;
55368;SDS011;41247;49.736;8.752;2023-07-31T18:59:10;5.78;;;2.88;;
55368;SDS011;41247;49.736;8.752;2023-07-31T19:02:51;8.38;;;2.97;;
55368;SDS011;41247;49.736;8.752;2023-07-31T19:06:32;7.68;;;2.95;;
55368;SDS011;41247;49.736;8.752;2023-07-31T19:10:12;9.48;;;3.50;;
55368;SDS011;41247;49.736;8.752;2023-07-31T19:13:53;8.02;;;3.13;;
55368;SDS011;41247;49.736;8.752;2023-07-31T19:17:33;8.80;;;3.70;;
55368;SDS011;41247;49.736;8.752;2023-07-31T19:21:14;8.05;;;3.60;;
55368;SDS011;41247;49.736;8.752;2023-07-31T19:24:54;6.03;;;3.28;;
55368;SDS011;41247;49.736;8.752;2023-07-31T19:28:35;6.35;;;3.40;;
55368;SDS011;41247;49.736;8.752;2023-07-31T19:32:16;10.27;;;3.50;;
55368;SDS011;41247;49.736;8.752;2023-07-31T19:35:57;10.20;;;3.28;;
55368;SDS011;41247;49.736;8.752;2023-07-31T19:39:38;5.90;;;3.08;;
55368;SDS011;41247;49.736;8.752;2023-07-31T19:43:19;5.28;;;2.65;;
55368;SDS011;41247;49.736;8.752;2023-07-31T19:46:59;8.85;;;3.10;;
55368;SDS011;41247;49.736;8.752;2023-07-31T19:50:40;6.47;;;3.03;;
55368;SDS011;41247;49.736;8.752;2023-07-31T19:54:20;6.97;;;2.95;;
55368;SDS011;41247;49.736;8.752;2023-07-31T19:58:01;5.20;;;3.10;;
55368;SDS011;41247;49.736;8.752;2023-07-31T20:01:42;5.60;;;2.90;;
55368;SDS011;41247;49.736;8.752;2023-07-31T20:05:22;7.47;;;3.20;;
55368;SDS011;41247;49.736;8.752;2023-07-31T20:09:04;5.90;;;3.10;;
55368;SDS011;41247;49.736;8.752;2023-07-31T20:12:45;4.35;;;2.90;;
55368;SDS011;41247;49.736;8.752;2023-07-31T20:16:26;7.30;;;3.15;;
55368;SDS011;41247;49.736;8.752;2023-07-31T20:20:06;7.47;;;3.53;;
55368;SDS011;41247;49.736;8.752;2023-07-31T20:23:48;11.07;;;3.45;;
55368;SDS011;41247;49.736;8.752;2023-07-31T20:27:28;9.70;;;3.67;;
55368;SDS011;41247;49.736;8.752;2023-07-31T20:31:09;7.18;;;3.75;;
55368;SDS011;41247;49.736;8.752;2023-07-31T20:34:49;10.70;;;3.58;;
55368;SDS011;41247;49.736;8.752;2023-07-31T20:38:30;7.95;;;3.92;;
55368;SDS011;41247;49.736;8.752;2023-07-31T20:42:11;8.68;;;3.88;;
55368;SDS011;41247;49.736;8.752;2023-07-31T20:45:51;7.68;;;4.10;;
55368;SDS011;41247;49.736;8.752;2023-07-31T20:49:32;8.02;;;3.92;;
55368;SDS011;41247;49.736;8.752;2023-07-31T20:53:12;9.73;;;4.68;;
55368;SDS011;41247;49.736;8.752;2023-07-31T20:56:53;10.13;;;4.53;;
55368;SDS011;41247;49.736;8.752;2023-07-31T21:00:34;10.35;;;4.60;;
55368;SDS011;41247;49.736;8.752;2023-07-31T21:04:14;10.20;;;4.63;;
55368;SDS011;41247;49.736;8.752;2023-07-31T21:07:55;9.52;;;4.07;;
55368;SDS011;41247;49.736;8.752;2023-07-31T21:11:35;11.80;;;4.65;;
55368;SDS011;41247;49.736;8.752;2023-07-31T21:15:16;10.98;;;4.20;;
55368;SDS011;41247;49.736;8.752;2023-07-31T21:18:57;14.02;;;4.50;;
55368;SDS011;41247;49.736;8.752;2023-07-31T21:22:37;8.60;;;4.82;;
55368;SDS011;41247;49.736;8.752;2023-07-31T21:26:18;12.32;;;4.70;;
55368;SDS011;41247;49.736;8.752;2023-07-31T21:29:59;14.25;;;4.57;;
55368;SDS011;41247;49.736;8.752;2023-07-31T21:33:39;7.38;;;4.20;;
55368;SDS011;41247;49.736;8.752;2023-07-31T21:37:23;12.25;;;4.65;;
55368;SDS011;41247;49.736;8.752;2023-07-31T21:41:03;12.43;;;4.72;;
55368;SDS011;41247;49.736;8.752;2023-07-31T21:44:44;8.65;;;4.38;;
55368;SDS011;41247;49.736;8.752;2023-07-31T21:48:25;11.55;;;4.53;;
55368;SDS011;41247;49.736;8.752;2023-07-31T21:52:17;9.80;;;4.97;;
55368;SDS011;41247;49.736;8.752;2023-07-31T21:55:58;11.20;;;4.78;;
55368;SDS011;41247;49.736;8.752;2023-07-31T21:59:39;11.60;;;4.72;;
55368;SDS011;41247;49.736;8.752;2023-07-31T22:03:19;11.80;;;5.00;;
55368;SDS011;41247;49.736;8.752;2023-07-31T22:07:01;11.27;;;4.38;;
55368;SDS011;41247;49.736;8.752;2023-07-31T22:10:42;7.18;;;4.60;;
55368;SDS011;41247;49.736;8.752;2023-07-31T22:14:22;8.00;;;4.40;;
55368;SDS011;41247;49.736;8.752;2023-07-31T22:18:03;9.15;;;4.88;;
55368;SDS011;41247;49.736;8.752;2023-07-31T22:21:44;10.02;;;5.00;;
55368;SDS011;41247;49.736;8.752;2023-07-31T22:25:24;8.75;;;4.78;;
55368;SDS011;41247;49.736;8.752;2023-07-31T22:29:05;11.45;;;4.95;;
55368;SDS011;41247;49.736;8.752;2023-07-31T22:32:45;11.00;;;5.22;;
55368;SDS011;41247;49.736;8.752;2023-07-31T22:36:26;9.10;;;4.60;;